Time;durP1;ratioP1;P1;durP2;ratioP2;P2;SDS_P1;SDS_P2;PMS_P1;PMS_P2;Temp;Humidity;BMP_temperature;BMP_pressure;BME280_temperature;BME280_humidity;BME280_pressure;Samples;Min_cycle;Max_cycle;Signal;HPM_P1;HPM_P2
2021/04/11 00:05:13;;;;;;;16.27;6.90;;;;;;;15.93;42.70;99181.45;4345944;81;28626;-83
2021/04/11 00:11:17;;;;;;;15.15;6.80;;;;;;;15.82;43.48;99181.88;4358481;81;28567;-83
2021/04/11 00:17:19;;;;;;;13.35;6.58;;;;;;;16.16;41.84;99171.52;4367886;80;28630;-81
2021/04/11 00:23:24;;;;;;;19.27;7.70;;;;;;;15.95;42.66;99162.48;4378550;81;28693;-80
2021/04/11 00:29:26;;;;;;;19.12;7.22;;;;;;;15.72;44.08;99166.39;4346399;80;28650;-81
2021/04/11 00:35:28;;;;;;;15.58;6.85;;;;;;;16.03;43.12;99159.80;4386492;80;28569;-82
2021/04/11 00:41:38;;;;;;;13.83;6.33;;;;;;;15.89;43.08;99156.19;4367731;80;28578;-82
2021/04/11 00:47:41;;;;;;;17.95;6.95;;;;;;;15.72;44.34;99153.67;4340642;81;28948;-81
2021/04/11 00:53:44;;;;;;;14.20;6.35;;;;;;;15.88;43.70;99149.67;4329795;80;28539;-81
2021/04/11 00:59:46;;;;;;;13.53;5.55;;;;;;;16.06;43.92;99142.99;4371074;81;28612;-81
2021/04/11 01:05:50;;;;;;;11.85;5.65;;;;;;;15.95;43.94;99140.80;4367621;81;28557;-81
2021/04/11 01:11:56;;;;;;;14.47;5.62;;;;;;;16.39;43.23;99157.20;4409765;80;28586;-80
2021/04/11 01:17:58;;;;;;;14.93;7.20;;;;;;;17.65;39.64;99149.41;4388471;81;28548;-80
2021/04/11 01:24:13;;;;;;;23.38;10.35;;;;;;;17.36;40.04;99150.82;4392602;80;28548;-81
2021/04/11 01:30:34;;;;;;;20.48;9.58;;;;;;;16.33;42.82;99142.02;4372822;80;28580;-81
2021/04/11 01:36:42;;;;;;;18.50;8.75;;;;;;;16.65;42.05;99151.03;4403630;79;28575;-82
2021/04/11 01:42:45;;;;;;;17.95;7.95;;;;;;;16.91;41.18;99159.23;4410886;80;28590;-81
2021/04/11 01:48:48;;;;;;;19.48;7.47;;;;;;;17.17;40.29;99163.33;4399835;79;28556;-80
2021/04/11 01:54:52;;;;;;;15.40;7.03;;;;;;;16.84;40.66;99163.01;4384974;80;28549;-82
2021/04/11 02:01:23;;;;;;;15.15;6.33;;;;;;;16.88;41.03;99170.64;4377380;80;28603;-82
2021/04/11 02:07:26;;;;;;;17.65;8.48;;;;;;;16.50;41.89;99158.06;4398836;80;28615;-83
2021/04/11 02:13:36;;;;;;;17.90;7.97;;;;;;;17.09;40.66;99152.47;4289106;82;28535;-83
2021/04/11 02:19:53;;;;;;;20.70;9.53;;;;;;;16.37;42.80;99147.73;4363627;79;84975;-83
2021/04/11 02:25:57;;;;;;;14.93;7.20;;;;;;;16.36;42.61;99150.17;4209150;84;28546;-83
2021/04/11 02:32:00;;;;;;;15.55;7.08;;;;;;;16.54;42.53;99140.71;4143780;84;28613;-82
2021/04/11 02:38:06;;;;;;;18.30;7.65;;;;;;;16.85;41.08;99140.20;4183987;83;28665;-82
2021/04/11 02:44:09;;;;;;;19.00;8.18;;;;;;;16.05;42.89;99148.14;4199337;85;28572;-83
2021/04/11 02:50:14;;;;;;;18.55;8.53;;;;;;;16.14;42.73;99152.51;4179398;84;28612;-82
2021/04/11 02:56:17;;;;;;;19.10;7.80;;;;;;;16.02;43.65;99143.26;4161612;84;28550;-83
2021/04/11 03:02:23;;;;;;;17.70;7.95;;;;;;;15.71;43.97;99136.30;4190067;84;44569;-83
2021/04/11 03:08:30;;;;;;;;;;;;;;;15.56;45.18;99150.02;4177745;84;28569;-83
2021/04/11 03:14:38;;;;;;;16.73;7.15;;;;;;;15.71;44.88;99142.52;4197782;82;20195;-82
2021/04/11 03:20:42;;;;;;;16.25;7.50;;;;;;;15.45;44.67;99147.80;4280090;82;28562;-82
2021/04/11 03:27:09;;;;;;;11.78;6.12;;;;;;;15.22;45.00;99146.83;4250438;82;28552;-83
2021/04/11 03:33:18;;;;;;;16.73;7.33;;;;;;;15.31;45.00;99147.98;4277725;82;28609;-82
2021/04/11 03:39:21;;;;;;;13.10;7.05;;;;;;;15.55;43.66;99145.69;4280944;82;28617;-82
2021/04/11 03:45:23;;;;;;;17.35;8.10;;;;;;;15.36;45.16;99137.69;4256305;82;28686;-81
2021/04/11 03:51:29;;;;;;;16.40;8.28;;;;;;;15.29;44.79;99139.28;4280532;82;28605;-81
2021/04/11 03:57:38;;;;;;;;;;;;;;;15.26;44.77;99135.22;4300200;82;28532;-82
2021/04/11 04:03:43;;;;;;;17.20;7.53;;;;;;;14.83;47.16;99134.30;4270220;82;20179;-83
2021/04/11 04:10:01;;;;;;;18.20;8.55;;;;;;;14.91;46.18;99128.42;4254153;82;28627;-83
2021/04/11 04:16:45;;;;;;;18.25;8.10;;;;;;;14.88;46.62;99122.19;4264295;82;28607;-83
2021/04/11 04:23:11;;;;;;;20.75;9.23;;;;;;;15.18;46.24;99121.59;4264901;82;28564;-83
2021/04/11 04:29:46;;;;;;;14.45;7.50;;;;;;;15.18;47.24;99124.30;4247091;82;28595;-80
2021/04/11 04:36:04;;;;;;;15.95;8.45;;;;;;;15.20;46.51;99125.41;4288059;82;28647;-81
2021/04/11 04:42:24;;;;;;;19.25;7.95;;;;;;;15.81;44.74;99128.75;4230854;84;28548;-79
2021/04/11 04:48:32;;;;;;;19.77;9.58;;;;;;;16.17;44.26;99135.73;4321738;81;28532;-78
2021/04/11 04:55:01;;;;;;;23.55;10.45;;;;;;;16.47;43.14;99138.26;4347808;81;28584;-78
2021/04/11 05:01:24;;;;;;;23.17;9.93;;;;;;;16.48;43.13;99128.20;4333394;81;28592;-78
2021/04/11 05:07:34;;;;;;;24.90;10.65;;;;;;;16.48;43.35;99126.84;4239285;83;28608;-77
2021/04/11 05:13:45;;;;;;;22.20;10.93;;;;;;;16.07;44.82;99121.57;4324011;81;28578;-77
2021/04/11 05:19:53;;;;;;;24.00;11.43;;;;;;;16.18;44.41;99126.50;4330178;81;28563;-78
2021/04/11 05:26:07;;;;;;;22.02;10.63;;;;;;;16.72;42.99;99132.06;4160562;84;28588;-82
2021/04/11 05:32:12;;;;;;;19.90;9.80;;;;;;;16.42;43.91;99130.92;4175008;84;28653;-83
2021/04/11 05:38:42;;;;;;;17.90;9.23;;;;;;;16.52;43.47;99135.55;4169886;84;28593;-82
2021/04/11 05:45:17;;;;;;;19.00;9.00;;;;;;;16.89;42.59;99135.05;4178776;84;28604;-82
2021/04/11 05:51:33;;;;;;;21.77;10.53;;;;;;;17.20;41.81;99123.41;4185480;84;28611;-82
2021/04/11 05:57:55;;;;;;;18.52;8.40;;;;;;;17.24;41.93;99123.95;4198442;84;28593;-84
2021/04/11 06:04:11;;;;;;;15.40;8.33;;;;;;;17.22;42.08;99125.30;4381280;79;85420;-84
2021/04/11 06:10:57;;;;;;;20.08;9.50;;;;;;;17.89;40.86;99114.83;4337785;81;28568;-83
2021/04/11 06:17:03;;;;;;;16.50;8.38;;;;;;;17.39;41.60;99115.50;4312295;81;28555;-83
2021/04/11 06:23:31;;;;;;;16.12;8.18;;;;;;;18.06;40.23;99102.27;4297085;81;28579;-83
2021/04/11 06:29:48;;;;;;;16.02;7.85;;;;;;;18.28;39.96;99091.00;4334846;81;28608;-83
2021/04/11 06:36:01;;;;;;;15.63;8.10;;;;;;;18.94;38.71;99094.87;4315046;81;28540;-82
2021/04/11 06:42:32;;;;;;;17.17;8.48;;;;;;;19.00;38.93;99092.92;4336087;81;28602;-82
2021/04/11 06:48:48;;;;;;;12.95;6.67;;;;;;;19.28;38.92;99089.16;4309485;81;28616;-83
2021/04/11 06:55:16;;;;;;;8.03;3.20;;;;;;;19.54;38.51;99088.34;4323404;81;28553;-82
2021/04/11 07:01:36;;;;;;;6.40;2.20;;;;;;;20.00;36.13;99084.84;4323047;81;28570;-83
2021/04/11 07:07:56;;;;;;;4.30;1.85;;;;;;;20.25;34.19;99074.11;4352348;80;28545;-83
2021/04/11 07:14:39;;;;;;;4.58;1.70;;;;;;;20.97;33.47;99080.95;4308243;80;28611;-84
2021/04/11 07:21:26;;;;;;;8.15;3.80;;;;;;;21.48;32.71;99064.19;4342461;80;28709;-83
2021/04/11 07:28:04;;;;;;;7.67;4.00;;;;;;;21.56;32.70;99064.86;4311392;82;28541;-86
2021/04/11 07:34:44;;;;;;;4.70;2.05;;;;;;;21.96;33.71;99071.73;4325757;81;28555;-86
2021/04/11 07:41:22;;;;;;;3.10;1.55;;;;;;;22.04;30.66;99068.84;4338441;80;28574;-85
2021/04/11 07:48:05;;;;;;;4.08;1.90;;;;;;;22.28;29.81;99061.17;4333413;80;28572;-87
2021/04/11 07:54:21;;;;;;;4.70;2.10;;;;;;;23.03;29.85;99054.46;4324158;80;28580;-87
2021/04/11 08:01:11;;;;;;;7.62;1.98;;;;;;;23.49;28.22;99051.06;4308266;81;42226;-86
2021/04/11 08:07:37;;;;;;;3.45;1.85;;;;;;;23.82;28.38;99058.11;4335901;80;28575;-83
2021/04/11 08:13:56;;;;;;;4.70;1.57;;;;;;;24.09;27.40;99048.81;4351167;81;28571;-83
2021/04/11 08:20:28;;;;;;;3.80;1.57;;;;;;;23.87;26.87;99054.41;4343534;81;28587;-82
2021/04/11 08:26:42;;;;;;;4.03;1.92;;;;;;;24.22;26.93;99049.80;4350685;81;28572;-84
2021/04/11 08:33:08;;;;;;;6.05;1.60;;;;;;;24.28;26.66;99055.13;4333471;80;28575;-83
2021/04/11 08:39:46;;;;;;;4.33;1.80;;;;;;;24.84;26.10;99061.34;4320255;80;28593;-83
2021/04/11 08:46:18;;;;;;;8.05;2.25;;;;;;;24.12;26.78;99060.28;4328916;80;28578;-85
2021/04/11 08:52:34;;;;;;;3.12;1.70;;;;;;;24.83;27.27;99061.91;4337254;80;28620;-87
2021/04/11 08:58:57;;;;;;;;;;;;;;;24.97;26.89;99037.52;4349349;81;28589;-85
2021/04/11 09:05:07;;;;;;;5.25;1.80;;;;;;;24.88;26.05;99042.47;4331922;81;20183;-87
2021/04/11 09:11:47;;;;;;;3.72;1.67;;;;;;;25.52;25.85;99040.01;4329513;81;28592;-86
2021/04/11 09:18:21;;;;;;;5.10;2.08;;;;;;;25.64;26.29;99041.23;4330907;81;28572;-83
2021/04/11 09:24:37;;;;;;;2.83;1.32;;;;;;;25.64;25.76;99033.80;4340976;81;28636;-85
2021/04/11 09:31:12;;;;;;;3.05;1.50;;;;;;;25.30;25.27;99035.53;4331198;81;28630;-88
2021/04/11 09:37:29;;;;;;;3.33;1.57;;;;;;;25.35;24.87;99025.73;4329053;80;28604;-80
2021/04/11 09:43:53;;;;;;;2.65;1.32;;;;;;;26.18;24.44;99024.83;4315061;81;28567;-80
2021/04/11 09:50:24;;;;;;;2.83;1.52;;;;;;;26.51;24.25;99011.47;4341209;80;28568;-80
2021/04/11 09:56:40;;;;;;;2.47;1.10;;;;;;;26.97;23.21;98992.98;4311401;79;28590;-80
2021/04/11 10:03:10;;;;;;;3.58;1.20;;;;;;;27.59;23.54;98992.80;4343296;81;28547;-80
2021/04/11 10:09:37;;;;;;;2.58;1.20;;;;;;;27.59;23.41;98996.94;4339909;81;28572;-81
2021/04/11 10:15:51;;;;;;;3.35;1.30;;;;;;;27.48;22.99;98994.61;4343480;81;28565;-81
2021/04/11 10:22:30;;;;;;;2.40;1.20;;;;;;;28.01;22.75;98990.27;4340536;81;28599;-80
2021/04/11 10:28:40;;;;;;;3.67;1.05;;;;;;;28.28;22.43;98996.20;4332391;81;28614;-80
2021/04/11 10:34:59;;;;;;;1.95;0.93;;;;;;;28.24;21.13;98990.02;4356477;81;28608;-80
2021/04/11 10:41:15;;;;;;;3.12;0.93;;;;;;;28.11;20.86;98993.92;4344710;81;28617;-80
2021/04/11 10:48:01;;;;;;;3.70;1.05;;;;;;;27.79;21.15;98992.41;4334574;81;28576;-80
2021/04/11 10:54:35;;;;;;;5.60;1.00;;;;;;;28.59;20.78;98996.06;4160745;84;43240;-80
2021/04/11 11:00:59;;;;;;;2.90;1.17;;;;;;;29.14;20.37;98995.50;4221452;84;28609;-80
2021/04/11 11:07:27;;;;;;;3.20;1.10;;;;;;;29.47;20.02;98985.45;4185149;83;28570;-80
2021/04/11 11:13:56;;;;;;;6.65;1.40;;;;;;;28.64;20.49;98991.08;4190255;85;28605;-80
2021/04/11 11:20:04;;;;;;;2.45;0.90;;;;;;;28.92;21.25;98988.05;4167516;85;28603;-80
2021/04/11 11:26:33;;;;;;;2.37;0.90;;;;;;;28.26;21.96;98995.17;4185272;85;28590;-81
2021/04/11 11:33:04;;;;;;;3.72;1.00;;;;;;;29.65;20.56;98997.53;4250518;83;28947;-79
2021/04/11 11:39:47;;;;;;;2.33;1.00;;;;;;;29.54;20.65;99008.95;4264726;82;28574;-80
2021/04/11 11:46:01;;;;;;;1.22;0.80;;;;;;;30.05;20.86;99000.61;4306187;83;28556;-80
2021/04/11 11:52:23;;;;;;;2.47;0.82;;;;;;;30.59;20.71;98986.17;4292632;82;28600;-81
2021/04/11 11:58:32;;;;;;;2.27;0.70;;;;;;;29.97;21.44;98990.50;4283330;82;28563;-85
2021/04/11 12:04:52;;;;;;;1.67;0.78;;;;;;;30.46;21.71;98996.66;4302831;83;28562;-81
2021/04/11 12:11:08;;;;;;;3.40;1.42;;;;;;;29.65;21.94;98998.92;4285402;81;28576;-85
2021/04/11 12:17:33;;;;;;;1.85;0.70;;;;;;;28.84;21.66;98999.52;4284085;81;28626;-82
2021/04/11 12:23:57;;;;;;;1.97;0.60;;;;;;;28.78;22.50;99002.28;4259731;81;28592;-84
2021/04/11 12:30:01;;;;;;;3.22;0.80;;;;;;;29.29;22.82;98991.12;4291287;81;28542;-86
2021/04/11 12:36:25;;;;;;;1.55;0.70;;;;;;;30.15;22.78;98998.42;4287188;81;28648;-85
2021/04/11 12:42:32;;;;;;;2.27;0.70;;;;;;;30.26;22.79;99002.78;4301467;81;28603;-85
2021/04/11 12:48:56;;;;;;;1.75;0.75;;;;;;;29.48;23.06;98999.52;4389402;79;84789;-81
2021/04/11 13:01:47;;;;;;;1.20;0.80;;;;;;;28.98;23.22;99013.49;4577698;76;287760;-87
2021/04/11 13:08:26;;;;;;;0.98;0.70;;;;;;;29.12;23.23;99011.67;4493145;78;28633;-87
2021/04/11 13:15:25;;;;;;;1.10;0.60;;;;;;;29.21;23.42;99015.88;4532351;77;253571;-87
2021/04/11 13:21:56;;;;;;;1.77;0.65;;;;;;;29.60;22.91;99017.19;4439246;78;28602;-88
2021/04/11 13:28:27;;;;;;;1.98;0.70;;;;;;;28.91;23.56;99017.70;4431817;79;28545;-86
2021/04/11 13:35:04;;;;;;;1.20;0.60;;;;;;;27.89;24.68;99031.19;4454605;79;28576;-90
2021/04/11 13:41:20;;;;;;;2.12;0.80;;;;;;;27.65;25.48;99035.59;4413982;79;28565;-89
2021/04/11 13:47:56;;;;;;;1.55;0.80;;;;;;;27.60;25.30;99037.20;4442458;79;28553;-89
2021/04/11 13:54:22;;;;;;;2.40;1.07;;;;;;;27.33;25.13;99048.55;4292778;82;36700;-88
2021/04/11 14:00:59;;;;;;;2.25;1.17;;;;;;;27.55;24.80;99040.43;4280870;81;29441;-86
2021/04/11 14:07:22;;;;;;;2.47;1.00;;;;;;;27.38;24.95;99048.91;4290805;82;28654;-86
2021/04/11 14:13:32;;;;;;;2.27;0.80;;;;;;;26.89;25.51;99047.67;4240947;82;28572;-87
2021/04/11 14:19:58;;;;;;;3.60;1.10;;;;;;;26.75;25.64;99054.05;4231302;82;28571;-88
2021/04/11 14:26:12;;;;;;;3.72;1.20;;;;;;;26.75;26.14;99046.56;4199659;82;28684;-85
2021/04/11 14:32:37;;;;;;;1.50;1.00;;;;;;;26.70;27.98;99057.81;4372708;79;86617;-84
2021/04/11 14:38:51;;;;;;;2.65;1.10;;;;;;;26.78;28.67;99063.83;4334048;80;28631;-83
2021/04/11 14:45:00;;;;;;;3.40;1.10;;;;;;;26.16;30.74;99064.89;4316013;80;28601;-84
2021/04/11 14:51:40;;;;;;;4.58;1.25;;;;;;;26.20;31.99;99067.82;4310323;80;28598;-83
2021/04/11 14:58:13;;;;;;;4.33;1.30;;;;;;;26.10;33.07;99075.31;4315349;80;28630;-87
2021/04/11 15:04:31;;;;;;;2.77;1.40;;;;;;;26.09;32.90;99061.86;4307861;80;28623;-85
2021/04/11 15:11:14;;;;;;;5.28;1.42;;;;;;;25.79;33.52;99077.85;4346385;80;28614;-86
2021/04/11 15:17:24;;;;;;;5.12;1.47;;;;;;;25.80;34.01;99079.46;4329862;80;28654;-86
2021/04/11 15:23:35;;;;;;;4.25;2.02;;;;;;;25.54;34.85;99076.26;4307007;80;28604;-84
2021/04/11 15:29:52;;;;;;;5.70;1.95;;;;;;;25.74;35.08;99080.22;4291020;81;28552;-88
2021/04/11 15:36:08;;;;;;;4.70;1.92;;;;;;;25.75;34.95;99087.34;4341161;81;28556;-87
2021/04/11 15:42:40;;;;;;;9.43;2.60;;;;;;;25.44;37.00;99095.86;4297788;81;28610;-88
2021/04/11 15:48:59;;;;;;;8.45;2.80;;;;;;;24.88;39.57;99102.16;4293261;82;28590;-84
2021/04/11 15:55:13;;;;;;;6.90;2.65;;;;;;;25.45;39.96;99101.59;4310068;82;28605;-83
2021/04/11 16:01:44;;;;;;;7.40;2.80;;;;;;;24.64;48.07;99099.34;4300698;82;28592;-83
2021/04/11 16:07:53;;;;;;;6.47;2.67;;;;;;;24.06;51.22;99097.52;4358756;81;28568;-85
2021/04/11 16:14:13;;;;;;;6.15;2.58;;;;;;;23.34;59.07;99100.88;4210267;84;28586;-84
2021/04/11 16:20:29;;;;;;;8.35;3.02;;;;;;;23.51;58.12;99098.20;4168399;84;28589;-86
2021/04/11 16:26:40;;;;;;;;;;;;;;;23.01;61.97;99098.38;4198750;85;28568;-84
2021/04/11 16:33:11;;;;;;;5.53;2.50;;;;;;;23.87;58.03;99103.82;4209690;84;20211;-85
2021/04/11 16:39:34;;;;;;;6.92;3.12;;;;;;;24.23;55.02;99109.65;4274153;83;28646;-86
2021/04/11 16:46:05;;;;;;;5.62;3.08;;;;;;;23.67;60.07;99106.81;4203018;83;28542;-86
2021/04/11 16:52:20;;;;;;;6.10;2.95;;;;;;;23.35;62.47;99112.89;4182103;83;28586;-84
2021/04/11 16:58:29;;;;;;;8.85;3.55;;;;;;;23.43;60.48;99107.77;4208137;84;28581;-85
2021/04/11 17:04:48;;;;;;;10.90;3.62;;;;;;;23.19;63.86;99107.55;4185487;84;28589;-84
2021/04/11 17:11:26;;;;;;;7.40;3.70;;;;;;;23.12;61.51;99103.88;4228036;84;28608;-84
2021/04/11 17:17:53;;;;;;;7.65;3.70;;;;;;;22.98;66.44;99105.33;4194103;83;28617;-86
2021/04/11 17:24:01;;;;;;;10.25;4.60;;;;;;;23.49;60.06;99097.70;4184116;84;28629;-85
2021/04/11 17:30:09;;;;;;;9.20;4.20;;;;;;;23.42;53.26;99093.23;4205244;83;28849;-85
2021/04/11 17:36:39;;;;;;;10.40;4.53;;;;;;;23.40;58.84;99105.09;4189240;83;28633;-85
2021/04/11 17:43:20;;;;;;;9.30;4.28;;;;;;;23.16;60.18;99108.16;4186334;83;28671;-84
2021/04/11 17:49:57;;;;;;;9.20;4.12;;;;;;;23.41;58.49;99108.66;4205086;84;28546;-85
2021/04/11 17:56:45;;;;;;;9.48;4.12;;;;;;;23.24;59.56;99127.97;4191583;83;28604;-86
2021/04/11 18:03:26;;;;;;;8.83;4.35;;;;;;;23.36;52.81;99131.55;4211385;83;28640;-84
2021/04/11 18:09:47;;;;;;;11.60;5.20;;;;;;;23.04;61.66;99125.20;4190991;82;28627;-84
2021/04/11 18:16:22;;;;;;;8.20;3.77;;;;;;;22.35;65.56;99148.95;4199480;82;28565;-81
2021/04/11 18:23:04;;;;;;;11.20;4.17;;;;;;;22.98;56.27;99134.11;4187897;84;28550;-84
2021/04/11 18:29:25;;;;;;;9.88;4.95;;;;;;;22.10;58.84;99153.29;4236507;82;28584;-84
2021/04/11 18:35:48;;;;;;;10.32;5.00;;;;;;;23.04;54.49;99153.98;4309051;81;28632;-82
2021/04/11 18:42:08;;;;;;;11.48;5.97;;;;;;;23.29;54.36;99144.88;4318676;82;28545;-84
2021/04/11 18:48:22;;;;;;;8.60;4.97;;;;;;;22.63;58.04;99144.23;4325411;82;28541;-80
2021/04/11 18:54:46;;;;;;;10.78;5.08;;;;;;;22.78;58.17;99146.36;4293082;82;28536;-87
2021/04/11 19:01:28;;;;;;;12.17;6.23;;;;;;;22.59;58.79;99147.33;4306061;82;28534;-86
2021/04/11 19:07:40;;;;;;;10.95;5.78;;;;;;;22.82;59.76;99146.80;4291881;82;28593;-89
2021/04/11 19:14:13;;;;;;;13.65;6.22;;;;;;;23.44;55.39;99143.67;4296558;82;28591;-88
2021/04/11 19:20:41;;;;;;;11.60;6.75;;;;;;;23.57;53.65;99147.46;4306889;82;28579;-89
2021/04/11 19:27:26;;;;;;;12.40;7.70;;;;;;;22.84;57.63;99154.72;4327167;82;28532;-89
2021/04/11 19:34:18;;;;;;;19.23;8.45;;;;;;;22.65;57.90;99148.02;4325727;81;28545;-89
2021/04/11 19:41:03;;;;;;;12.70;7.60;;;;;;;22.67;58.26;99149.34;4341698;80;28541;-81
2021/04/11 19:47:36;;;;;;;13.37;8.10;;;;;;;23.01;54.58;99145.81;4310812;80;28589;-86
2021/04/11 19:54:08;;;;;;;15.10;7.67;;;;;;;22.52;56.25;99151.87;4328114;80;28576;-88
2021/04/11 20:00:46;;;;;;;15.53;7.78;;;;;;;22.29;56.54;99153.16;4315187;82;28584;-89
2021/04/11 20:07:12;;;;;;;8.60;5.60;;;;;;;22.66;53.75;99149.09;4303465;82;28562;-88
2021/04/11 20:13:47;;;;;;;8.93;5.75;;;;;;;22.75;49.93;99142.88;4311516;82;28594;-90
2021/04/11 20:20:15;;;;;;;11.83;5.62;;;;;;;22.82;48.02;99148.17;4341114;82;28580;-89
2021/04/11 20:26:34;;;;;;;12.35;5.97;;;;;;;22.56;47.88;99139.19;4305053;82;28552;-86
2021/04/11 20:33:06;;;;;;;11.27;5.57;;;;;;;22.89;46.38;99135.40;4313217;81;28618;-87
2021/04/11 20:39:35;;;;;;;7.30;4.83;;;;;;;22.41;47.04;99129.91;4299896;82;28554;-86
2021/04/11 20:46:13;;;;;;;8.83;4.90;;;;;;;22.59;46.48;99128.15;4299016;82;28575;-89
2021/04/11 20:52:41;;;;;;;8.20;4.42;;;;;;;22.88;45.49;99117.91;4309680;82;28548;-85
2021/04/11 20:58:57;;;;;;;9.58;4.40;;;;;;;22.82;44.95;99113.12;4354364;82;28627;-86
2021/04/11 21:05:30;;;;;;;9.90;5.03;;;;;;;22.74;45.07;99111.11;4311357;81;28596;-84
2021/04/11 21:12:05;;;;;;;8.15;5.05;;;;;;;22.71;45.06;99101.58;4316490;82;28575;-82
2021/04/11 21:18:34;;;;;;;7.58;4.33;;;;;;;22.62;45.64;99101.52;4314380;82;42767;-80
2021/04/11 21:24:50;;;;;;;8.25;4.60;;;;;;;22.25;45.95;99099.31;4290453;82;28545;-82
2021/04/11 21:31:18;;;;;;;9.10;4.62;;;;;;;22.22;45.49;99095.83;4335269;81;28595;-82
2021/04/11 21:37:57;;;;;;;7.95;4.55;;;;;;;22.19;45.37;99103.30;4316391;82;28564;-81
2021/04/11 21:44:01;;;;;;;7.35;4.50;;;;;;;22.19;44.75;99097.82;4301671;82;28552;-81
2021/04/11 21:50:48;;;;;;;6.70;4.47;;;;;;;22.08;44.98;99098.59;4293061;82;28572;-81
2021/04/11 21:57:32;;;;;;;7.90;3.90;;;;;;;21.66;47.00;99087.08;4129876;86;28572;-81
2021/04/11 22:04:19;;;;;;;6.85;3.98;;;;;;;21.50;48.41;99089.31;4310660;82;28634;-82
2021/04/11 22:10:39;;;;;;;8.53;4.75;;;;;;;21.88;45.61;99091.63;4301554;82;28571;-80
2021/04/11 22:17:09;;;;;;;8.83;4.92;;;;;;;21.81;44.52;99094.20;4307934;82;28610;-81
2021/04/11 22:23:28;;;;;;;6.50;3.98;;;;;;;21.64;45.05;99096.70;4603945;76;71548;-81
2021/04/11 22:29:54;;;;;;;7.40;4.25;;;;;;;21.46;47.78;99101.98;4532327;78;28536;-80
2021/04/11 22:36:04;;;;;;;6.87;4.33;;;;;;;21.26;47.24;99101.78;4501790;78;28621;-81
2021/04/11 22:42:19;;;;;;;5.30;3.60;;;;;;;21.00;49.07;99095.41;4530040;78;28525;-81
2021/04/11 22:48:26;;;;;;;7.08;3.95;;;;;;;20.97;48.12;99104.19;4520129;78;28640;-81
2021/04/11 22:54:45;;;;;;;7.92;4.35;;;;;;;20.29;54.07;99093.44;4467164;78;28577;-82
2021/04/11 23:00:53;;;;;;;5.83;3.85;;;;;;;20.41;54.16;99099.84;4524198;78;28558;-81
2021/04/11 23:07:15;;;;;;;6.10;3.90;;;;;;;20.08;55.59;99088.83;4387589;80;28573;-83
2021/04/11 23:13:21;;;;;;;6.67;3.65;;;;;;;20.68;51.45;99087.43;4381971;81;28610;-83
2021/04/11 23:19:47;;;;;;;5.03;3.22;;;;;;;20.39;51.75;99072.82;4378784;80;28571;-83
2021/04/11 23:26:28;;;;;;;7.20;4.70;;;;;;;20.16;54.46;99075.33;4351195;81;28556;-82
2021/04/11 23:32:37;;;;;;;7.50;4.65;;;;;;;20.09;53.39;99062.59;4354372;81;28568;-82
2021/04/11 23:38:46;;;;;;;7.25;4.50;;;;;;;20.26;53.81;99055.28;4371140;81;28606;-82
2021/04/11 23:45:15;;;;;;;6.03;3.58;;;;;;;19.88;54.42;99055.22;4361056;81;28543;-83
2021/04/11 23:51:47;;;;;;;6.95;3.85;;;;;;;19.97;53.69;99056.77;4331583;82;28591;-83
2021/04/11 23:58:19;;;;;;;6.62;3.65;;;;;;;19.79;53.10;99049.04;4336976;81;28591;-83
